createdAt,value
2022-11-20T00:01:07.589Z,100013.31
2022-11-20T00:03:55.764Z,100012.41
2022-11-20T00:06:43.251Z,100023.53
2022-11-20T00:09:30.701Z,100019.53
2022-11-20T00:12:18.114Z,100017.06
2022-11-20T00:15:05.725Z,100022.22
2022-11-20T00:17:53.092Z,100029.88
2022-11-20T00:20:40.419Z,100024.97
2022-11-20T00:23:27.834Z,100023.25
2022-11-20T00:26:16.470Z,100018.25
2022-11-20T00:29:04.042Z,100024.16
2022-11-20T00:31:51.403Z,100023.34
2022-11-20T00:34:38.747Z,100023.34
2022-11-20T00:37:26.141Z,100026.81
2022-11-20T00:40:13.716Z,100022.63
2022-11-20T00:43:01.102Z,100024.44
2022-11-20T00:45:48.485Z,100027.97
2022-11-20T00:48:36.093Z,100028.81
2022-11-20T00:51:24.392Z,100032.25
2022-11-20T00:54:11.776Z,100024.78
2022-11-20T00:56:59.097Z,100034.06
2022-11-20T00:59:46.523Z,100028.06
2022-11-20T01:02:33.862Z,100024.69
2022-11-20T01:05:21.271Z,100026.53
2022-11-20T01:08:08.943Z,100033.34
2022-11-20T01:10:59.594Z,100029.25
2022-11-20T01:13:47.860Z,100038.53
2022-11-20T01:16:37.154Z,100027.59
2022-11-20T01:19:25.209Z,100030.97
2022-11-20T01:22:12.786Z,100029.34
2022-11-20T01:25:00.095Z,100022.69
2022-11-20T01:27:47.448Z,100026.13
2022-11-20T01:30:34.781Z,100028.88
2022-11-20T01:33:22.145Z,100031.53
2022-11-20T01:36:10.169Z,100030.69
2022-11-20T01:38:58.973Z,100033.50
2022-11-20T01:42:09.651Z,100043.88
2022-11-20T01:44:59.341Z,100029.66
2022-11-20T01:47:47.348Z,100044.34
2022-11-20T01:50:35.098Z,100044.44
2022-11-20T01:53:26.169Z,100042.03
2022-11-20T01:56:14.553Z,100056.59
2022-11-20T01:59:05.104Z,100047.22
2022-11-20T02:01:53.077Z,100056.59
2022-11-20T02:04:40.599Z,100069.44
2022-11-20T02:07:28.856Z,100069.28
2022-11-20T02:10:16.577Z,100067.38
2022-11-20T02:13:23.069Z,100068.13
2022-11-20T02:16:19.670Z,100071.41
2022-11-20T02:19:14.799Z,100076.50
2022-11-20T02:22:22.787Z,100073.94
2022-11-20T02:25:11.143Z,100077.28
2022-11-20T02:27:58.473Z,100081.59
2022-11-20T02:30:45.871Z,100084.06
2022-11-20T02:33:33.227Z,100095.09
2022-11-20T02:36:20.580Z,100094.25
2022-11-20T02:39:08.480Z,100100.19
2022-11-20T02:41:56.940Z,100100.19
2022-11-20T02:44:44.297Z,100090.97
2022-11-20T02:47:31.717Z,100099.53
2022-11-20T02:50:19.524Z,100093.63
2022-11-20T02:53:07.493Z,100095.34
2022-11-20T02:55:54.875Z,100096.16
2022-11-20T02:58:42.293Z,100088.66
2022-11-20T03:01:29.743Z,100100.63
2022-11-20T03:04:17.161Z,100096.41
2022-11-20T03:07:04.884Z,100100.69
2022-11-20T03:09:52.375Z,100100.03
2022-11-20T03:12:39.825Z,100106.16
2022-11-20T03:15:27.224Z,100105.31
2022-11-20T03:18:15.764Z,100107.78
2022-11-20T03:21:03.166Z,100100.88
2022-11-20T03:23:50.488Z,100107.78
2022-11-20T03:26:37.796Z,100114.69
2022-11-20T03:29:25.148Z,100112.13
2022-11-20T03:32:12.544Z,100118.06
2022-11-20T03:35:00.246Z,100113.84
2022-11-20T03:37:47.604Z,100111.25
2022-11-20T03:40:35.711Z,100109.59
2022-11-20T03:43:23.086Z,100108.13
2022-11-20T03:46:10.700Z,100109.91
2022-11-20T03:48:58.098Z,100115.03
2022-11-20T03:51:45.595Z,100122.75
2022-11-20T03:54:32.977Z,100123.59
2022-11-20T03:57:20.365Z,100123.41
2022-11-20T04:00:07.883Z,100135.28
2022-11-20T04:02:58.470Z,100133.50
2022-11-20T04:05:45.869Z,100135.91
2022-11-20T04:08:33.323Z,100134.94
2022-11-20T04:11:20.692Z,100133.19
2022-11-20T04:14:13.412Z,100136.56
2022-11-20T04:17:00.790Z,100142.50
2022-11-20T04:19:48.145Z,100150.06
2022-11-20T04:22:35.468Z,100149.06
2022-11-20T04:25:22.978Z,100145.78
2022-11-20T04:28:10.601Z,100146.66
2022-11-20T04:31:05.027Z,100154.41
2022-11-20T04:33:52.463Z,100154.50
2022-11-20T04:36:39.851Z,100154.50
2022-11-20T04:39:27.250Z,100161.22
2022-11-20T04:42:29.717Z,100168.09
2022-11-20T04:45:17.073Z,100168.09
2022-11-20T04:48:04.606Z,100182.28
2022-11-20T04:50:52.925Z,100183.03
2022-11-20T04:53:40.245Z,100186.41
2022-11-20T04:56:27.665Z,100193.22
2022-11-20T04:59:15.311Z,100185.75
2022-11-20T05:02:02.732Z,100191.75
2022-11-20T05:04:50.284Z,100185.00
2022-11-20T05:07:37.780Z,100196.84
2022-11-20T05:10:26.018Z,100195.31
2022-11-20T05:13:13.368Z,100204.66
2022-11-20T05:16:04.656Z,100197.94
2022-11-20T05:18:53.175Z,100206.47
2022-11-20T05:21:40.624Z,100209.03
2022-11-20T05:24:27.972Z,100211.66
2022-11-20T05:27:15.369Z,100215.84
2022-11-20T05:30:03.334Z,100212.50
2022-11-20T05:32:52.842Z,100223.44
2022-11-20T05:35:40.418Z,100225.81
2022-11-20T05:38:27.811Z,100234.19
2022-11-20T05:41:16.615Z,100230.72
2022-11-20T05:44:04.222Z,100234.78
2022-11-20T05:46:52.715Z,100227.94
2022-11-20T05:49:40.104Z,100238.97
2022-11-20T05:52:30.716Z,100241.34
2022-11-20T05:55:18.277Z,100242.94
2022-11-20T05:58:05.614Z,100253.94
2022-11-20T06:00:53.404Z,100257.16
2022-11-20T06:03:41.325Z,100263.66
2022-11-20T06:06:28.833Z,100269.31
2022-11-20T06:09:16.227Z,100273.34
2022-11-20T06:12:03.673Z,100269.00
2022-11-20T06:14:51.087Z,100263.66
2022-11-20T06:17:38.492Z,100278.88
2022-11-20T06:20:25.869Z,100278.03
2022-11-20T06:23:13.229Z,100283.13
2022-11-20T06:26:07.889Z,100287.25
2022-11-20T06:28:57.130Z,100297.56
2022-11-20T06:31:44.581Z,100300.13
2022-11-20T06:34:33.116Z,100311.84
2022-11-20T06:37:20.591Z,100307.34
2022-11-20T06:40:08.677Z,100308.81
2022-11-20T06:42:56.853Z,100306.19
2022-11-20T06:45:44.294Z,100299.41
2022-11-20T06:48:31.661Z,100308.00
2022-11-20T06:51:19.101Z,100291.69
2022-11-20T06:54:07.120Z,100294.88
2022-11-20T06:56:54.535Z,100294.97
2022-11-20T06:59:41.925Z,100301.72
2022-11-20T07:02:29.273Z,100304.28
2022-11-20T07:05:16.993Z,100304.84
2022-11-20T07:08:04.441Z,100305.41
2022-11-20T07:10:51.873Z,100303.09
2022-11-20T07:13:39.276Z,100293.63
2022-11-20T07:16:26.640Z,100288.88
2022-11-20T07:19:13.987Z,100286.44
2022-11-20T07:22:01.353Z,100299.00
2022-11-20T07:24:49.439Z,100313.34
2022-11-20T07:27:37.217Z,100317.56
2022-11-20T07:30:24.589Z,100306.41
2022-11-20T07:33:12.059Z,100297.88
2022-11-20T07:36:00.342Z,100310.53
2022-11-20T07:38:47.750Z,100309.53
2022-11-20T07:41:35.141Z,100305.25
2022-11-20T07:44:22.451Z,100306.91
2022-11-20T07:47:09.829Z,100314.47
2022-11-20T07:49:57.204Z,100326.06
2022-11-20T07:52:44.612Z,100323.28
2022-11-20T07:55:32.153Z,100327.28
2022-11-20T07:58:20.967Z,100324.66
2022-11-20T08:01:08.980Z,100321.19
2022-11-20T08:03:56.462Z,100324.66
2022-11-20T08:06:43.868Z,100329.38
2022-11-20T08:09:31.237Z,100331.50
2022-11-20T08:12:40.922Z,100337.44
2022-11-20T08:15:28.334Z,100338.28
2022-11-20T08:18:32.409Z,100344.88
2022-11-20T08:21:20.130Z,100341.19
2022-11-20T08:24:08.218Z,100338.88
2022-11-20T08:26:57.965Z,100337.63
2022-11-20T08:29:45.352Z,100342.41
2022-11-20T08:32:35.139Z,100342.84
2022-11-20T08:35:23.166Z,100346.97
2022-11-20T08:38:10.973Z,100338.03
2022-11-20T08:41:22.746Z,100342.88
2022-11-20T08:44:10.807Z,100342.69
2022-11-20T08:46:58.704Z,100355.22
2022-11-20T08:49:46.527Z,100355.81
2022-11-20T08:52:38.494Z,100357.66
2022-11-20T08:55:27.828Z,100367.72
2022-11-20T08:58:16.060Z,100368.34
2022-11-20T09:01:03.932Z,100384.34
2022-11-20T09:04:00.937Z,100387.53
2022-11-20T09:06:52.222Z,100386.72
2022-11-20T09:09:40.147Z,100400.66
2022-11-20T09:12:27.786Z,100395.50
2022-11-20T09:15:18.271Z,100398.75
2022-11-20T09:18:06.150Z,100407.44
2022-11-20T09:20:57.658Z,100411.91
2022-11-20T09:23:46.254Z,100406.41
2022-11-20T09:26:34.429Z,100425.63
2022-11-20T09:29:22.613Z,100428.28
2022-11-20T09:32:10.876Z,100441.97
2022-11-20T09:34:58.689Z,100446.34
2022-11-20T09:37:47.413Z,100442.81
2022-11-20T09:40:36.783Z,100445.09
2022-11-20T09:43:43.485Z,100445.28
2022-11-20T09:46:41.898Z,100434.56
2022-11-20T09:49:32.655Z,100435.84
2022-11-20T09:52:34.000Z,100443.28
2022-11-20T09:55:22.683Z,100442.28
2022-11-20T09:58:30.807Z,100439.53
2022-11-20T10:01:19.929Z,100441.13
2022-11-20T10:04:15.116Z,100440.38
2022-11-20T10:07:31.483Z,100437.63
2022-11-20T10:10:26.471Z,100441.75
2022-11-20T10:13:14.320Z,100455.53
2022-11-20T10:16:25.344Z,100438.56
2022-11-20T10:19:45.778Z,100448.13
2022-11-20T10:22:43.129Z,100458.44
2022-11-20T10:25:36.249Z,100457.13
2022-11-20T10:28:27.377Z,100464.06
2022-11-20T10:31:35.749Z,100458.84
2022-11-20T10:34:35.764Z,100455.66
2022-11-20T10:37:27.597Z,100468.19
2022-11-20T10:40:19.008Z,100468.47
2022-11-20T10:43:13.639Z,100455.59
2022-11-20T10:46:06.869Z,100462.88
2022-11-20T10:48:55.483Z,100460.91
2022-11-20T10:52:06.492Z,100461.81
2022-11-20T10:55:09.011Z,100478.63
2022-11-20T10:58:29.388Z,100487.44
2022-11-20T11:01:18.682Z,100480.75
2022-11-20T11:04:16.977Z,100481.66
2022-11-20T11:07:21.908Z,100482.00
2022-11-20T11:10:17.756Z,100481.16
2022-11-20T11:13:05.587Z,100491.28
2022-11-20T11:15:54.754Z,100494.78
2022-11-20T11:18:43.539Z,100496.25
2022-11-20T11:21:31.676Z,100495.50
2022-11-20T11:24:41.056Z,100503.22
2022-11-20T11:27:29.747Z,100497.78
2022-11-20T11:30:18.916Z,100496.56
2022-11-20T11:33:08.306Z,100491.63
2022-11-20T11:36:00.813Z,100495.16
2022-11-20T11:38:52.324Z,100500.84
2022-11-20T11:41:40.339Z,100489.94
2022-11-20T11:44:50.878Z,100494.41
2022-11-20T11:47:46.893Z,100498.94
2022-11-20T11:50:35.185Z,100490.63
2022-11-20T11:53:25.145Z,100494.81
2022-11-20T11:56:15.001Z,100499.16
2022-11-20T11:59:06.623Z,100506.06
2022-11-20T12:02:04.201Z,100511.16
2022-11-20T12:04:56.224Z,100519.38
2022-11-20T12:07:47.545Z,100516.31
2022-11-20T12:10:46.876Z,100517.38
2022-11-20T12:13:35.000Z,100516.47
2022-11-20T12:16:22.966Z,100521.41
2022-11-20T12:19:14.455Z,100521.66
2022-11-20T12:22:11.434Z,100521.00
2022-11-20T12:25:08.991Z,100522.06
2022-11-20T12:28:15.390Z,100509.38
2022-11-20T12:31:09.083Z,100512.59
2022-11-20T12:34:15.384Z,100511.69
2022-11-20T12:37:32.287Z,100514.22
2022-11-20T12:40:38.406Z,100506.75
2022-11-20T12:43:46.702Z,100512.16
2022-11-20T12:46:47.457Z,100518.31
2022-11-20T12:49:52.032Z,100519.22
2022-11-20T12:52:42.462Z,100516.50
2022-11-20T12:55:48.607Z,100515.44
2022-11-20T12:58:42.427Z,100519.72
2022-11-20T13:01:48.704Z,100524.91
2022-11-20T13:04:39.113Z,100535.19
2022-11-20T13:07:28.342Z,100529.25
2022-11-20T13:10:22.622Z,100529.25
2022-11-20T13:13:10.244Z,100539.16
2022-11-20T13:16:00.794Z,100540.97
2022-11-20T13:18:48.419Z,100533.59
2022-11-20T13:21:47.515Z,100532.09
2022-11-20T13:24:35.298Z,100533.69
2022-11-20T13:27:24.259Z,100536.16
2022-11-20T13:30:18.203Z,100547.78
2022-11-20T13:33:08.729Z,100543.50
2022-11-20T13:36:01.419Z,100558.16
2022-11-20T13:38:52.607Z,100554.94
2022-11-20T13:41:41.077Z,100550.72
2022-11-20T13:44:36.751Z,100549.88
2022-11-20T13:51:23.824Z,100560.91
2022-11-20T13:54:33.757Z,100569.31
2022-11-20T13:57:43.370Z,100566.69
2022-11-20T14:00:30.985Z,100564.06
2022-11-20T14:03:51.251Z,100565.72
2022-11-20T14:06:45.123Z,100563.09
2022-11-20T14:09:37.337Z,100563.69
2022-11-20T14:12:59.273Z,100566.19
2022-11-20T14:16:41.091Z,100570.22
2022-11-20T14:24:16.822Z,100593.50
2022-11-20T14:27:48.423Z,100590.94
2022-11-20T14:31:26.296Z,100585.84
2022-11-20T14:42:53.549Z,100597.84
2022-11-20T14:46:57.370Z,100607.88
2022-11-20T14:55:11.528Z,100613.81
2022-11-20T15:02:23.745Z,100605.34
2022-11-20T15:05:22.367Z,100600.22
2022-11-20T15:08:20.250Z,100600.16
2022-11-20T15:11:39.009Z,100604.44
2022-11-20T15:14:35.426Z,100603.63
2022-11-20T15:17:50.012Z,100598.50
2022-11-20T15:21:26.357Z,100594.25
2022-11-20T15:25:06.378Z,100600.22
2022-11-20T15:28:04.058Z,100589.13
2022-11-20T15:31:18.735Z,100591.59
2022-11-20T15:34:42.029Z,100579.72
2022-11-20T15:37:30.979Z,100590.63
2022-11-20T15:40:18.925Z,100588.97
2022-11-20T15:43:13.898Z,100594.00
2022-11-20T15:46:04.472Z,100597.38
2022-11-20T15:49:14.834Z,100594.00
2022-11-20T15:52:22.761Z,100598.13
2022-11-20T15:55:11.558Z,100584.63
2022-11-20T15:58:00.501Z,100582.91
2022-11-20T16:00:47.916Z,100586.88
2022-11-20T16:03:48.683Z,100597.66
2022-11-20T16:06:42.566Z,100610.34
2022-11-20T16:09:36.505Z,100612.00
2022-11-20T16:12:46.556Z,100598.41
2022-11-20T16:15:49.905Z,100596.84
2022-11-20T16:18:59.381Z,100591.81
2022-11-20T16:21:48.070Z,100591.91
2022-11-20T16:24:44.189Z,100588.59
2022-11-20T16:27:35.441Z,100586.13
2022-11-20T16:30:27.002Z,100579.34
2022-11-20T18:37:57.940Z,100615.69
2022-11-20T18:40:45.370Z,100619.00
2022-11-20T18:43:51.539Z,100609.66
2022-11-20T18:46:38.994Z,100616.56
2022-11-20T18:49:26.507Z,100624.16
2022-11-20T18:52:14.112Z,100622.50
2022-11-20T18:55:02.586Z,100620.03
2022-11-20T18:57:51.248Z,100619.38
2022-11-20T19:00:38.804Z,100627.09
2022-11-20T19:03:27.349Z,100599.34
2022-11-20T19:06:14.760Z,100608.78
2022-11-20T19:09:02.818Z,100611.34
2022-11-20T19:11:50.300Z,100609.59
2022-11-20T19:14:37.802Z,100605.41
2022-11-20T19:17:25.230Z,100599.56
2022-11-20T19:20:13.032Z,100584.16
2022-11-20T19:23:00.397Z,100587.38
2022-11-20T19:25:47.834Z,100581.38
2022-11-20T19:28:36.004Z,100578.09
2022-11-20T19:31:26.443Z,100567.88
2022-11-20T19:34:14.542Z,100565.25
2022-11-20T19:37:02.354Z,100572.75
2022-11-20T19:39:49.843Z,100569.28
2022-11-20T19:42:37.286Z,100574.22
2022-11-20T19:45:24.689Z,100579.28
2022-11-20T19:48:12.055Z,100582.63
2022-11-20T19:50:59.694Z,100580.84
2022-11-20T19:53:47.448Z,100570.63
2022-11-20T19:56:35.012Z,100573.94
2022-11-20T19:59:22.947Z,100572.13
2022-11-20T20:02:11.313Z,100588.19
2022-11-20T20:04:58.700Z,100589.03
2022-11-20T20:07:46.100Z,100591.50
2022-11-20T20:10:33.549Z,100594.13
2022-11-20T20:13:20.964Z,100594.97
2022-11-20T20:16:19.390Z,100609.38
2022-11-20T20:19:06.927Z,100615.31
2022-11-20T20:21:54.296Z,100615.97
2022-11-20T20:24:41.645Z,100611.63
2022-11-20T20:27:29.045Z,100607.38
2022-11-20T20:30:16.634Z,100609.94
2022-11-20T20:33:04.019Z,100615.88
2022-11-20T20:35:51.438Z,100621.00
2022-11-20T20:38:38.929Z,100618.53
2022-11-20T20:41:26.291Z,100613.50
2022-11-20T20:44:32.468Z,100611.91
2022-11-20T20:47:19.861Z,100606.06
2022-11-20T20:50:09.003Z,100608.69
2022-11-20T20:52:56.390Z,100613.88
2022-11-20T20:55:53.035Z,100606.13
2022-11-20T20:58:40.730Z,100617.09
2022-11-20T21:01:29.033Z,100622.97
2022-11-20T21:04:17.084Z,100622.88
2022-11-20T21:07:04.668Z,100616.09
2022-11-20T21:09:52.293Z,100622.13
2022-11-20T21:12:39.666Z,100623.09
2022-11-20T21:15:27.102Z,100613.72
2022-11-20T21:18:15.145Z,100614.56
2022-11-20T21:21:25.270Z,100621.38
2022-11-20T21:24:12.795Z,100610.41
2022-11-20T21:27:01.002Z,100620.72
2022-11-20T21:29:48.431Z,100624.31
2022-11-20T21:32:35.849Z,100625.28
2022-11-20T21:35:23.291Z,100626.41
2022-11-20T21:38:10.753Z,100622.31
2022-11-20T21:40:58.783Z,100620.81
2022-11-20T21:43:51.557Z,100618.25
2022-11-20T21:46:46.529Z,100610.59
2022-11-20T21:49:34.344Z,100611.47
2022-11-20T21:52:21.744Z,100595.41
2022-11-20T21:55:09.539Z,100586.25
2022-11-20T21:57:56.923Z,100595.97
2022-11-20T22:00:44.367Z,100596.03
2022-11-20T22:03:31.720Z,100608.78
2022-11-20T22:06:19.649Z,100618.91
2022-11-20T22:09:07.229Z,100619.66
2022-11-20T22:11:54.692Z,100622.16
2022-11-20T22:14:42.104Z,100621.97
2022-11-20T22:18:03.842Z,100613.53
2022-11-20T22:20:51.392Z,100612.59
2022-11-20T22:23:39.039Z,100614.28
2022-11-20T22:26:27.666Z,100612.69
2022-11-20T22:29:15.937Z,100605.19
2022-11-20T22:32:03.331Z,100609.38
2022-11-20T22:34:50.753Z,100612.69
2022-11-20T22:37:38.182Z,100621.09
2022-11-20T22:40:25.562Z,100615.03
2022-11-20T22:43:12.946Z,100605.50
2022-11-20T22:46:05.469Z,100598.66
2022-11-20T22:48:54.453Z,100597.09
2022-11-20T22:51:41.919Z,100592.94
2022-11-20T22:54:47.956Z,100591.22
2022-11-20T22:57:35.330Z,100592.88
2022-11-20T23:00:22.770Z,100599.63
2022-11-20T23:03:10.169Z,100607.13
2022-11-20T23:06:00.818Z,100599.47
2022-11-20T23:08:48.502Z,100590.19
2022-11-20T23:11:36.150Z,100579.97
2022-11-20T23:14:27.512Z,100579.13
2022-11-20T23:17:15.226Z,100574.88
2022-11-20T23:20:02.711Z,100560.31
2022-11-20T23:22:50.940Z,100555.94
2022-11-20T23:25:38.425Z,100560.31
2022-11-20T23:28:25.866Z,100567.22
2022-11-20T23:31:14.128Z,100561.50
2022-11-20T23:34:01.610Z,100563.28
2022-11-20T23:36:49.025Z,100558.19
2022-11-20T23:39:36.407Z,100556.47
2022-11-20T23:42:23.839Z,100563.25
2022-11-20T23:45:11.270Z,100558.19
2022-11-20T23:47:58.598Z,100556.38
2022-11-20T23:50:46.328Z,100552.13
2022-11-20T23:53:34.130Z,100547.94
2022-11-20T23:56:21.503Z,100543.63
2022-11-20T23:59:08.914Z,100535.97
